Terminal Aerodrome Forecast
Issued by NWS

Home | Current Version | Previous Version | Text Only | Print | Product List | Glossary On
Versions: 1 2 3 4 5 6 7 8 9 10 11 12 13 14 15 16 17 18
000
FTUS46 KLOX 241125
TAFWJF
TAF
KWJF 241125Z 2412/2512 30008KT P6SM SKC
     FM241800 26012KT P6SM SKC
     FM242100 27018G28KT P6SM SKC
     FM242300 27028G38KT 6SM BLDU SKC
     FM250400 26020G30KT P6SM SKC
     FM250900 28015KT P6SM SKC=

USA.gov is the U.S. government's official web portal to all federal, state and local government web resources and services.